Time;durP1;ratioP1;P1;durP2;ratioP2;P2;SDS_P1;SDS_P2;PMS_P1;PMS_P2;Temp;Humidity;BMP_temperature;BMP_pressure;BME280_temperature;BME280_humidity;BME280_pressure;Samples;Min_cycle;Max_cycle;Signal;HPM_P1;HPM_P2
2020/12/30 00:01:04;;;;;;;;;;;11.50;72.60;;;;;;2089206;28;755;-53
2020/12/30 00:02:24;;;;;;;;;;;11.50;72.60;;;;;;2102160;28;744;-54
2020/12/30 00:03:43;;;;;;;;;;;11.50;72.70;;;;;;2092282;28;775;-52
2020/12/30 00:05:06;;;;;;;;;;;11.50;72.70;;;;;;2093881;28;755;-53
2020/12/30 00:06:26;;;;;;;;;;;11.50;72.60;;;;;;2088943;28;742;-52
2020/12/30 00:07:45;;;;;;;;;;;11.50;72.90;;;;;;2094445;28;692;-53
2020/12/30 00:09:04;;;;;;;;;;;11.50;72.80;;;;;;2097903;28;714;-53
2020/12/30 00:10:24;;;;;;;;;;;11.50;72.80;;;;;;2097659;28;1451;-55
2020/12/30 00:11:43;;;;;;;;;;;11.50;72.90;;;;;;2088985;28;770;-53
2020/12/30 00:13:02;;;;;;;;;;;11.40;72.60;;;;;;2083066;28;968;-53
2020/12/30 00:14:21;;;;;;;;;;;11.40;72.70;;;;;;2093928;28;1522;-52
2020/12/30 00:15:40;;;;;;;;;;;11.40;72.50;;;;;;2083858;28;764;-56
2020/12/30 00:17:02;;;;;;;;;;;11.40;72.60;;;;;;2080668;28;772;-52
2020/12/30 00:18:21;;;;;;;;;;;11.40;73.30;;;;;;2072525;28;750;-53
2020/12/30 00:19:41;;;;;;;;;;;11.40;72.70;;;;;;2077585;28;1906;-55
2020/12/30 00:21:00;;;;;;;;;;;11.40;72.80;;;;;;2081122;28;721;-54
2020/12/30 00:22:19;;;;;;;;;;;11.40;72.80;;;;;;2081189;28;728;-52
2020/12/30 00:23:39;;;;;;;;;;;11.40;72.70;;;;;;2072791;28;705;-52
2020/12/30 00:24:58;;;;;;;;;;;11.40;72.80;;;;;;2084898;28;748;-54
2020/12/30 00:26:18;;;;;;;;;;;11.40;72.90;;;;;;2083198;28;737;-54
2020/12/30 00:27:37;;;;;;;;;;;11.40;73.00;;;;;;2072638;28;758;-52
2020/12/30 00:28:56;;;;;;;;;;;11.40;73.00;;;;;;2078030;28;715;-54
2020/12/30 00:30:16;;;;;;;;;;;11.40;73.00;;;;;;2072566;28;732;-54
2020/12/30 00:31:35;;;;;;;;;;;11.40;73.80;;;;;;2078058;28;713;-53
2020/12/30 00:32:54;;;;;;;;;;;11.40;72.90;;;;;;2080826;28;768;-53
2020/12/30 00:34:13;;;;;;;;;;;11.40;73.80;;;;;;2081225;28;1364;-53
2020/12/30 00:35:33;;;;;;;;;;;11.40;73.00;;;;;;2080650;28;707;-53
2020/12/30 00:36:52;;;;;;;;;;;11.40;73.00;;;;;;2080276;28;738;-54
2020/12/30 00:38:11;;;;;;;;;;;11.40;73.10;;;;;;2089141;28;780;-53
2020/12/30 00:39:31;;;;;;;;;;;11.40;73.20;;;;;;2075902;28;1989;-54
2020/12/30 00:40:50;;;;;;;;;;;11.40;73.20;;;;;;2085529;28;756;-53
2020/12/30 00:42:09;;;;;;;;;;;11.40;73.70;;;;;;2075817;28;722;-54
2020/12/30 00:43:29;;;;;;;;;;;11.40;73.20;;;;;;2090177;28;880;-53
2020/12/30 00:44:48;;;;;;;;;;;11.30;73.20;;;;;;2082949;28;1455;-55
2020/12/30 00:46:13;;;;;;;;;;;11.30;73.00;;;;;;2094465;28;808;-54
2020/12/30 00:47:33;;;;;;;;;;;11.30;73.10;;;;;;2097454;28;710;-54
2020/12/30 00:48:52;;;;;;;;;;;11.30;73.20;;;;;;2090258;28;814;-55
2020/12/30 00:50:12;;;;;;;;;;;11.30;73.10;;;;;;2095966;28;746;-53
2020/12/30 00:51:36;;;;;;;;;;;11.30;73.20;;;;;;2090703;28;748;-54
2020/12/30 00:52:56;;;;;;;;;;;11.30;73.30;;;;;;2087709;28;723;-55
2020/12/30 00:54:15;;;;;;;;;;;11.30;72.60;;;;;;2103906;28;1490;-54
2020/12/30 00:55:34;;;;;;;;;;;11.30;74.00;;;;;;2084728;28;741;-52
2020/12/30 00:57:11;;;;;;;;;;;11.30;73.20;;;;;;2081430;28;753;-54
2020/12/30 00:58:30;;;;;;;;;;;11.30;73.20;;;;;;2086488;28;712;-53
2020/12/30 00:59:51;;;;;;;;;;;11.30;73.40;;;;;;2095441;28;1979;-54
2020/12/30 01:01:14;;;;;;;;;;;11.30;73.10;;;;;;2082006;28;744;-54
2020/12/30 01:03:05;;;;;;;;;;;11.30;73.10;;;;;;2098876;28;743;-54
2020/12/30 01:04:24;;;;;;;;;;;11.30;73.80;;;;;;2090488;28;1382;-52
2020/12/30 01:05:43;;;;;;;;;;;11.30;73.70;;;;;;2103730;28;749;-55
2020/12/30 01:07:03;;;;;;;;;;;11.30;73.00;;;;;;2093971;28;740;-52
2020/12/30 01:08:22;;;;;;;;;;;11.30;72.90;;;;;;2095889;28;780;-53
2020/12/30 01:09:42;;;;;;;;;;;11.30;72.80;;;;;;2099329;28;717;-52
2020/12/30 01:11:01;;;;;;;;;;;11.30;72.80;;;;;;2090461;28;712;-54
2020/12/30 01:12:20;;;;;;;;;;;11.30;72.70;;;;;;2092665;28;1009;-54
2020/12/30 01:13:39;;;;;;;;;;;11.30;72.60;;;;;;2086907;28;998;-54
2020/12/30 01:14:59;;;;;;;;;;;11.30;72.60;;;;;;2092380;28;1181;-52
2020/12/30 01:16:18;;;;;;;;;;;11.30;72.60;;;;;;2090992;28;692;-53
2020/12/30 01:17:37;;;;;;;;;;;11.30;72.50;;;;;;2081897;28;717;-53
2020/12/30 01:18:56;;;;;;;;;;;11.30;72.50;;;;;;2082106;28;719;-52
2020/12/30 01:20:15;;;;;;;;;;;11.40;72.50;;;;;;2078876;28;1973;-55
2020/12/30 01:21:40;;;;;;;;;;;11.40;72.40;;;;;;2095477;28;740;-52
2020/12/30 01:23:00;;;;;;;;;;;11.40;72.50;;;;;;2093157;28;725;-52
2020/12/30 01:24:19;;;;;;;;;;;11.40;72.40;;;;;;2090991;28;1386;-53
2020/12/30 01:25:38;;;;;;;;;;;11.40;72.40;;;;;;2090296;28;694;-55
2020/12/30 01:26:57;;;;;;;;;;;11.40;72.30;;;;;;2089981;28;723;-52
2020/12/30 01:28:16;;;;;;;;;;;11.40;72.40;;;;;;2082052;28;720;-53
2020/12/30 01:29:36;;;;;;;;;;;11.40;72.30;;;;;;2078628;28;915;-51
2020/12/30 01:30:55;;;;;;;;;;;11.40;72.30;;;;;;2073696;28;745;-54
2020/12/30 01:32:15;;;;;;;;;;;11.40;72.20;;;;;;2084063;28;761;-52
2020/12/30 01:33:34;;;;;;;;;;;11.30;72.90;;;;;;2090652;28;752;-53
2020/12/30 01:34:53;;;;;;;;;;;11.40;73.10;;;;;;2081049;28;720;-55
2020/12/30 01:36:12;;;;;;;;;;;11.40;73.00;;;;;;2087576;28;732;-54
2020/12/30 01:37:31;;;;;;;;;;;11.40;72.40;;;;;;2090983;28;728;-54
2020/12/30 01:38:51;;;;;;;;;;;11.40;72.30;;;;;;2090904;28;780;-53
2020/12/30 01:40:11;;;;;;;;;;;11.40;72.30;;;;;;2081881;28;1906;-55
2020/12/30 01:41:30;;;;;;;;;;;11.30;72.20;;;;;;2073708;28;1015;-53
2020/12/30 01:42:49;;;;;;;;;;;11.30;72.10;;;;;;2077346;28;1061;-54
2020/12/30 01:44:09;;;;;;;;;;;11.40;72.20;;;;;;2088169;28;1419;-55
2020/12/30 01:45:28;;;;;;;;;;;11.40;72.10;;;;;;2094606;28;767;-53
2020/12/30 01:46:47;;;;;;;;;;;11.40;72.30;;;;;;2095067;28;745;-51
2020/12/30 01:48:09;;;;;;;;;;;11.40;72.20;;;;;;2087168;28;735;-53
2020/12/30 01:49:28;;;;;;;;;;;11.40;72.20;;;;;;2090159;28;767;-54
2020/12/30 01:50:47;;;;;;;;;;;11.30;72.90;;;;;;2094270;28;741;-53
2020/12/30 01:52:06;;;;;;;;;;;11.30;72.20;;;;;;2094629;28;745;-55
2020/12/30 01:53:26;;;;;;;;;;;11.30;72.20;;;;;;2096395;28;737;-57
2020/12/30 01:54:45;;;;;;;;;;;11.40;72.20;;;;;;2077644;28;1334;-52
2020/12/30 01:56:05;;;;;;;;;;;11.30;72.20;;;;;;2095467;28;1011;-54
2020/12/30 01:57:24;;;;;;;;;;;11.40;72.40;;;;;;2090288;28;805;-54
2020/12/30 01:58:43;;;;;;;;;;;11.30;72.20;;;;;;2100886;28;740;-55
2020/12/30 02:00:06;;;;;;;;;;;11.30;72.20;;;;;;2096736;28;1902;-54
2020/12/30 02:01:27;;;;;;;;;;;11.30;72.20;;;;;;2086045;28;805;-52
2020/12/30 02:02:46;;;;;;;;;;;11.30;73.00;;;;;;2082126;28;989;-56
2020/12/30 02:04:06;;;;;;;;;;;11.30;72.30;;;;;;2084320;28;1464;-54
2020/12/30 02:05:25;;;;;;;;;;;11.30;72.30;;;;;;2088233;28;1237;-54
2020/12/30 02:06:44;;;;;;;;;;;11.30;72.30;;;;;;2084781;28;1348;-55
2020/12/30 02:08:04;;;;;;;;;;;11.30;72.30;;;;;;2086088;28;1143;-53
2020/12/30 02:09:25;;;;;;;;;;;11.30;72.30;;;;;;2094848;28;1214;-55
2020/12/30 02:10:44;;;;;;;;;;;11.30;72.30;;;;;;2091036;28;1091;-54
2020/12/30 02:12:04;;;;;;;;;;;11.30;72.20;;;;;;2094871;28;1090;-55
2020/12/30 02:13:23;;;;;;;;;;;11.30;72.30;;;;;;2093640;28;1421;-52
2020/12/30 02:14:42;;;;;;;;;;;11.30;72.30;;;;;;2094741;28;1427;-55
2020/12/30 02:16:01;;;;;;;;;;;11.30;73.10;;;;;;2079720;28;1215;-55
2020/12/30 02:17:21;;;;;;;;;;;11.30;73.00;;;;;;2088285;28;1185;-54
2020/12/30 02:18:40;;;;;;;;;;;11.30;72.40;;;;;;2070501;28;1332;-56
2020/12/30 02:19:59;;;;;;;;;;;11.30;72.30;;;;;;2088214;28;1989;-54
2020/12/30 02:21:18;;;;;;;;;;;11.30;72.40;;;;;;2095932;28;1253;-55
2020/12/30 02:22:38;;;;;;;;;;;11.30;72.50;;;;;;2073272;28;1302;-53
2020/12/30 02:23:57;;;;;;;;;;;11.30;72.30;;;;;;2073972;28;1431;-52
2020/12/30 02:25:16;;;;;;;;;;;11.30;72.40;;;;;;2090969;28;1212;-54
2020/12/30 02:26:35;;;;;;;;;;;11.30;72.70;;;;;;2097985;28;1102;-51
2020/12/30 02:27:55;;;;;;;;;;;11.30;72.40;;;;;;2095746;28;1245;-53
2020/12/30 02:29:14;;;;;;;;;;;11.30;72.40;;;;;;2095479;28;1240;-52
2020/12/30 02:30:33;;;;;;;;;;;11.30;72.30;;;;;;2095642;28;886;-54
2020/12/30 02:31:52;;;;;;;;;;;11.30;72.40;;;;;;2098550;28;1106;-54
2020/12/30 02:33:11;;;;;;;;;;;11.30;73.10;;;;;;2094746;28;874;-54
2020/12/30 02:34:30;;;;;;;;;;;11.30;72.30;;;;;;2082345;28;1354;-53
2020/12/30 02:35:51;;;;;;;;;;;11.30;73.20;;;;;;2093832;28;1057;-53
2020/12/30 02:37:10;;;;;;;;;;;11.30;72.50;;;;;;2082261;28;1361;-51
2020/12/30 02:38:29;;;;;;;;;;;11.30;72.50;;;;;;2088499;28;1138;-53
2020/12/30 02:39:49;;;;;;;;;;;11.30;72.40;;;;;;2097998;28;1894;-52
2020/12/30 02:41:08;;;;;;;;;;;11.30;72.50;;;;;;2105986;28;1133;-52
2020/12/30 02:42:28;;;;;;;;;;;11.30;72.40;;;;;;2096658;28;906;-54
2020/12/30 02:43:47;;;;;;;;;;;11.30;72.50;;;;;;2084262;28;1291;-52
2020/12/30 02:45:07;;;;;;;;;;;11.30;72.60;;;;;;2095035;28;1145;-53
2020/12/30 02:46:26;;;;;;;;;;;11.30;72.50;;;;;;2100945;28;1069;-53
2020/12/30 02:47:45;;;;;;;;;;;11.30;72.50;;;;;;2079069;28;1397;-52
2020/12/30 02:49:04;;;;;;;;;;;11.30;72.50;;;;;;2080620;28;1085;-51
2020/12/30 02:50:23;;;;;;;;;;;11.30;72.50;;;;;;2094659;28;1088;-54
2020/12/30 02:51:43;;;;;;;;;;;11.30;72.50;;;;;;2089134;28;1189;-52
2020/12/30 02:53:02;;;;;;;;;;;11.30;72.50;;;;;;2094826;28;1040;-55
2020/12/30 02:54:21;;;;;;;;;;;11.30;72.50;;;;;;2085865;28;1511;-54
2020/12/30 02:55:41;;;;;;;;;;;11.20;72.50;;;;;;2089969;28;1037;-53
2020/12/30 02:57:00;;;;;;;;;;;11.30;72.60;;;;;;2097581;28;1333;-53
2020/12/30 02:58:19;;;;;;;;;;;11.30;72.60;;;;;;2096355;28;1197;-52
2020/12/30 02:59:39;;;;;;;;;;;11.20;72.50;;;;;;2087810;28;1987;-51
2020/12/30 03:00:58;;;;;;;;;;;11.30;72.60;;;;;;2098053;28;1181;-54
2020/12/30 03:02:17;;;;;;;;;;;11.20;72.60;;;;;;2095913;28;1153;-53
2020/12/30 03:03:36;;;;;;;;;;;11.30;72.60;;;;;;2091037;28;1156;-54
2020/12/30 03:04:55;;;;;;;;;;;11.20;72.60;;;;;;2095421;28;1369;-52
2020/12/30 03:06:15;;;;;;;;;;;11.20;72.70;;;;;;2089279;28;1065;-52
2020/12/30 03:07:34;;;;;;;;;;;11.20;72.70;;;;;;2094570;28;1389;-52
2020/12/30 03:08:53;;;;;;;;;;;11.20;72.60;;;;;;2097987;28;1123;-53
2020/12/30 03:10:12;;;;;;;;;;;11.20;73.30;;;;;;2103806;28;1292;-54
2020/12/30 03:11:31;;;;;;;;;;;11.20;72.60;;;;;;2087633;28;1196;-55
2020/12/30 03:12:51;;;;;;;;;;;11.20;72.70;;;;;;2084290;28;1124;-52
2020/12/30 03:14:10;;;;;;;;;;;11.20;72.60;;;;;;2094426;28;1534;-52
2020/12/30 03:15:30;;;;;;;;;;;11.20;72.70;;;;;;2096151;28;1153;-54
2020/12/30 03:16:49;;;;;;;;;;;11.20;72.70;;;;;;2094738;28;1068;-52
2020/12/30 03:18:08;;;;;;;;;;;11.20;72.70;;;;;;2089058;28;1154;-54
2020/12/30 03:19:27;;;;;;;;;;;11.20;72.70;;;;;;2093527;28;1271;-52
2020/12/30 03:20:46;;;;;;;;;;;11.20;72.80;;;;;;2094102;28;1152;-54
2020/12/30 03:22:06;;;;;;;;;;;11.20;73.00;;;;;;2089163;28;1244;-54
2020/12/30 03:23:25;;;;;;;;;;;11.20;72.80;;;;;;2084577;28;1774;-54
2020/12/30 03:24:44;;;;;;;;;;;11.20;72.70;;;;;;2090524;28;1373;-55
2020/12/30 03:26:03;;;;;;;;;;;11.20;73.60;;;;;;2087586;28;1113;-55
2020/12/30 03:27:22;;;;;;;;;;;11.20;72.80;;;;;;2087284;28;1114;-52
2020/12/30 03:28:42;;;;;;;;;;;11.20;73.00;;;;;;2100065;28;1176;-54
2020/12/30 03:30:01;;;;;;;;;;;11.20;73.00;;;;;;2097922;28;1096;-55
2020/12/30 03:31:21;;;;;;;;;;;11.20;73.10;;;;;;2080206;28;1143;-53
2020/12/30 03:32:40;;;;;;;;;;;11.20;73.00;;;;;;2082806;28;1241;-54
2020/12/30 03:34:00;;;;;;;;;;;11.20;73.10;;;;;;2080246;28;1792;-52
2020/12/30 03:35:20;;;;;;;;;;;11.20;73.20;;;;;;2089980;28;1114;-54
2020/12/30 03:36:39;;;;;;;;;;;11.20;73.10;;;;;;2097631;28;1241;-55
2020/12/30 03:37:58;;;;;;;;;;;11.20;73.20;;;;;;2084068;28;1850;-53
2020/12/30 03:39:17;;;;;;;;;;;11.10;73.20;;;;;;2084553;28;1046;-53
2020/12/30 03:40:37;;;;;;;;;;;11.20;73.20;;;;;;2088345;28;1154;-52
2020/12/30 03:41:56;;;;;;;;;;;11.20;73.30;;;;;;2093261;28;1240;-53
2020/12/30 03:43:15;;;;;;;;;;;11.20;74.10;;;;;;2097366;28;1132;-54
2020/12/30 03:44:34;;;;;;;;;;;11.20;74.10;;;;;;2094184;28;1361;-52
2020/12/30 03:45:53;;;;;;;;;;;11.20;73.30;;;;;;2101250;28;1279;-54
2020/12/30 03:47:12;;;;;;;;;;;11.20;73.50;;;;;;2097673;28;1409;-53
2020/12/30 03:48:32;;;;;;;;;;;11.10;73.40;;;;;;2101464;28;1571;-54
2020/12/30 03:49:51;;;;;;;;;;;11.10;73.40;;;;;;2085939;28;1143;-52
2020/12/30 03:51:11;;;;;;;;;;;11.10;73.40;;;;;;2084311;28;905;-52
2020/12/30 03:52:30;;;;;;;;;;;11.10;73.40;;;;;;2093988;28;1401;-53
2020/12/30 03:53:49;;;;;;;;;;;11.10;73.50;;;;;;2076862;28;1170;-51
2020/12/30 03:55:09;;;;;;;;;;;11.10;73.40;;;;;;2089043;28;899;-53
2020/12/30 03:56:29;;;;;;;;;;;11.10;73.40;;;;;;2088773;28;1240;-52
2020/12/30 03:57:48;;;;;;;;;;;11.10;73.60;;;;;;2092219;28;1157;-52
2020/12/30 03:59:07;;;;;;;;;;;11.10;73.60;;;;;;2097160;28;867;-51
2020/12/30 04:00:26;;;;;;;;;;;11.10;73.60;;;;;;2095840;28;1911;-53
2020/12/30 04:01:45;;;;;;;;;;;11.10;74.40;;;;;;2093068;28;1496;-52
2020/12/30 04:03:05;;;;;;;;;;;11.10;73.80;;;;;;2094004;28;1242;-52
2020/12/30 04:04:24;;;;;;;;;;;11.10;73.70;;;;;;2096568;28;1411;-53
2020/12/30 04:05:43;;;;;;;;;;;11.10;74.60;;;;;;2087837;28;942;-52
2020/12/30 04:07:02;;;;;;;;;;;11.10;73.80;;;;;;2096673;28;1152;-52
2020/12/30 04:08:22;;;;;;;;;;;11.10;73.80;;;;;;2092114;28;1545;-51
2020/12/30 04:09:41;;;;;;;;;;;11.10;73.90;;;;;;2093900;28;904;-52
2020/12/30 04:11:00;;;;;;;;;;;11.10;74.00;;;;;;2091370;28;1007;-53
2020/12/30 04:12:20;;;;;;;;;;;11.10;73.90;;;;;;2074012;28;1140;-55
2020/12/30 04:13:39;;;;;;;;;;;11.10;73.90;;;;;;2092033;28;1141;-52
2020/12/30 04:14:58;;;;;;;;;;;11.10;74.00;;;;;;2096700;28;1039;-52
2020/12/30 04:16:23;;;;;;;;;;;11.10;74.10;;;;;;2091450;28;1060;-53
2020/12/30 04:17:43;;;;;;;;;;;11.00;74.10;;;;;;2090798;28;2401;-54
2020/12/30 04:19:02;;;;;;;;;;;11.00;74.00;;;;;;2085493;28;1275;-53
2020/12/30 04:20:21;;;;;;;;;;;11.10;74.20;;;;;;2098029;28;1933;-52
2020/12/30 04:21:41;;;;;;;;;;;11.00;74.10;;;;;;2096369;28;1326;-56
2020/12/30 04:23:00;;;;;;;;;;;11.00;75.00;;;;;;2085597;28;1173;-55
2020/12/30 04:24:19;;;;;;;;;;;11.00;75.00;;;;;;2085907;28;1514;-55
2020/12/30 04:25:38;;;;;;;;;;;11.10;76.30;;;;;;2100083;28;1160;-56
2020/12/30 04:26:57;;;;;;;;;;;11.10;76.80;;;;;;2100737;28;1192;-55
2020/12/30 04:28:16;;;;;;;;;;;11.10;77.10;;;;;;2103305;28;1172;-52
2020/12/30 04:29:35;;;;;;;;;;;11.10;77.30;;;;;;2090095;28;1343;-54
2020/12/30 04:30:55;;;;;;;;;;;11.10;76.30;;;;;;2090642;28;1004;-53
2020/12/30 04:32:14;;;;;;;;;;;11.10;76.70;;;;;;2094808;28;1041;-53
2020/12/30 04:33:33;;;;;;;;;;;11.10;75.20;;;;;;2086468;28;1018;-53
2020/12/30 04:34:52;;;;;;;;;;;11.10;75.00;;;;;;2096846;28;1348;-52
2020/12/30 04:36:11;;;;;;;;;;;11.10;75.10;;;;;;2097357;28;935;-52
2020/12/30 04:37:31;;;;;;;;;;;11.00;75.00;;;;;;2097571;28;1041;-53
2020/12/30 04:38:50;;;;;;;;;;;11.00;75.00;;;;;;2085605;28;1350;-52
2020/12/30 04:40:09;;;;;;;;;;;11.00;75.00;;;;;;2093703;28;1972;-53
2020/12/30 04:41:32;;;;;;;;;;;11.00;75.00;;;;;;2093960;28;1017;-52
2020/12/30 04:42:51;;;;;;;;;;;11.00;75.00;;;;;;2095125;28;960;-54
2020/12/30 04:44:10;;;;;;;;;;;11.00;75.00;;;;;;2088263;28;1538;-52
2020/12/30 04:45:30;;;;;;;;;;;11.00;75.10;;;;;;2087962;28;1075;-53
2020/12/30 04:46:49;;;;;;;;;;;11.00;75.80;;;;;;2088917;28;1259;-51
2020/12/30 04:48:09;;;;;;;;;;;11.00;75.20;;;;;;2089968;28;1373;-51
2020/12/30 04:49:29;;;;;;;;;;;11.00;75.20;;;;;;2088395;28;1176;-52
2020/12/30 04:50:48;;;;;;;;;;;11.00;75.20;;;;;;2090320;28;1039;-53
2020/12/30 04:52:07;;;;;;;;;;;11.00;75.20;;;;;;2097764;28;1152;-53
2020/12/30 04:53:26;;;;;;;;;;;11.00;75.30;;;;;;2096419;28;911;-53
2020/12/30 04:54:45;;;;;;;;;;;10.90;75.30;;;;;;2081781;28;1470;-52
2020/12/30 04:56:05;;;;;;;;;;;10.90;75.30;;;;;;2082594;28;1168;-51
2020/12/30 04:57:30;;;;;;;;;;;10.90;75.30;;;;;;2085170;28;1254;-53
2020/12/30 04:58:49;;;;;;;;;;;10.90;75.30;;;;;;2093655;28;1055;-52
2020/12/30 05:00:09;;;;;;;;;;;10.90;75.30;;;;;;2077316;28;1969;-51
2020/12/30 05:01:28;;;;;;;;;;;10.90;75.30;;;;;;2089827;28;1118;-51
2020/12/30 05:02:49;;;;;;;;;;;10.90;75.50;;;;;;2088153;28;1087;-53
2020/12/30 05:04:09;;;;;;;;;;;10.90;75.40;;;;;;2085171;28;1499;-53
2020/12/30 05:05:28;;;;;;;;;;;10.90;75.30;;;;;;2083048;28;927;-54
2020/12/30 05:06:49;;;;;;;;;;;10.90;75.60;;;;;;2089861;28;1245;-52
2020/12/30 05:08:08;;;;;;;;;;;10.90;75.50;;;;;;2088268;28;1188;-52
2020/12/30 05:09:27;;;;;;;;;;;10.90;75.60;;;;;;2082920;28;1117;-52
2020/12/30 05:10:46;;;;;;;;;;;10.90;76.20;;;;;;2101598;28;975;-51
2020/12/30 05:12:13;;;;;;;;;;;10.90;75.60;;;;;;2098396;28;1242;-54
2020/12/30 05:13:32;;;;;;;;;;;10.90;75.70;;;;;;2084703;28;1180;-51
2020/12/30 05:14:52;;;;;;;;;;;10.90;76.60;;;;;;2091721;28;1376;-57
2020/12/30 05:16:11;;;;;;;;;;;11.00;76.90;;;;;;2105146;28;1146;-53
2020/12/30 05:17:30;;;;;;;;;;;11.00;76.10;;;;;;2089745;28;1330;-52
2020/12/30 05:18:50;;;;;;;;;;;11.00;75.80;;;;;;2100298;28;1140;-53
2020/12/30 05:20:09;;;;;;;;;;;10.90;76.20;;;;;;2089975;28;1985;-53
2020/12/30 05:21:28;;;;;;;;;;;10.90;75.70;;;;;;2101159;28;1152;-52
2020/12/30 05:22:47;;;;;;;;;;;10.90;75.80;;;;;;2089989;28;1340;-53
2020/12/30 05:24:07;;;;;;;;;;;10.90;76.00;;;;;;2084751;28;1365;-52
2020/12/30 05:25:26;;;;;;;;;;;10.90;76.00;;;;;;2088771;28;1413;-52
2020/12/30 05:26:45;;;;;;;;;;;10.90;76.00;;;;;;2094089;28;1229;-52
2020/12/30 05:28:05;;;;;;;;;;;10.90;76.10;;;;;;2093005;28;1290;-54
2020/12/30 05:29:24;;;;;;;;;;;10.90;76.10;;;;;;2097453;28;1098;-52
2020/12/30 05:30:43;;;;;;;;;;;10.90;76.10;;;;;;2095557;28;1237;-52
2020/12/30 05:32:02;;;;;;;;;;;10.90;76.10;;;;;;2088097;28;1121;-52
2020/12/30 05:33:21;;;;;;;;;;;10.90;76.10;;;;;;2082378;28;1443;-51
2020/12/30 05:34:41;;;;;;;;;;;10.90;76.20;;;;;;2090041;28;1389;-53
2020/12/30 05:36:00;;;;;;;;;;;10.90;76.30;;;;;;2097796;28;1402;-53
2020/12/30 05:37:27;;;;;;;;;;;10.90;77.00;;;;;;2089633;28;1339;-52
2020/12/30 05:38:46;;;;;;;;;;;10.90;76.20;;;;;;2091893;28;1055;-52
2020/12/30 05:40:18;;;;;;;;;;;10.90;76.30;;;;;;2093351;28;1957;-54
2020/12/30 05:41:37;;;;;;;;;;;10.90;76.20;;;;;;2085442;28;923;-52
2020/12/30 05:43:10;;;;;;;;;;;10.90;76.30;;;;;;2091695;28;1344;-53
2020/12/30 05:44:29;;;;;;;;;;;10.80;76.30;;;;;;2082349;28;1377;-52
2020/12/30 05:45:49;;;;;;;;;;;10.90;76.40;;;;;;2081932;28;1391;-53
2020/12/30 05:47:18;;;;;;;;;;;10.90;76.50;;;;;;2085848;28;1170;-53
2020/12/30 05:48:37;;;;;;;;;;;10.80;76.30;;;;;;2091503;28;1278;-54
2020/12/30 05:49:57;;;;;;;;;;;10.80;76.40;;;;;;2084974;28;1114;-52
2020/12/30 05:51:16;;;;;;;;;;;10.80;76.40;;;;;;2086243;28;955;-53
2020/12/30 05:52:35;;;;;;;;;;;10.80;76.30;;;;;;2093524;28;1436;-52
2020/12/30 05:54:10;;;;;;;;;;;10.80;76.10;;;;;;2098773;28;1361;-54
2020/12/30 05:55:30;;;;;;;;;;;10.80;76.30;;;;;;2097677;28;1115;-52
2020/12/30 05:56:49;;;;;;;;;;;10.80;76.30;;;;;;2089707;28;1075;-53
2020/12/30 05:58:12;;;;;;;;;;;10.80;77.30;;;;;;2095172;28;904;-52
2020/12/30 05:59:31;;;;;;;;;;;10.80;77.10;;;;;;2087868;28;989;-52
2020/12/30 06:00:50;;;;;;;;;;;10.80;76.60;;;;;;2081329;28;942;-51
2020/12/30 06:02:10;;;;;;;;;;;10.80;76.30;;;;;;2091740;28;1392;-53
2020/12/30 06:03:30;;;;;;;;;;;10.80;76.50;;;;;;2081167;28;1157;-52
2020/12/30 06:04:50;;;;;;;;;;;10.80;76.60;;;;;;2087298;28;1515;-52
2020/12/30 06:06:09;;;;;;;;;;;10.80;76.60;;;;;;2089884;28;1053;-52
2020/12/30 06:07:28;;;;;;;;;;;10.80;76.70;;;;;;2077868;28;892;-53
2020/12/30 06:08:48;;;;;;;;;;;10.80;76.40;;;;;;2092145;28;1004;-52
2020/12/30 06:10:08;;;;;;;;;;;10.80;77.20;;;;;;2087511;28;1159;-53
2020/12/30 06:11:27;;;;;;;;;;;10.80;77.10;;;;;;2103402;28;732;-53
2020/12/30 06:12:59;;;;;;;;;;;10.80;76.70;;;;;;2085835;28;2011;-53
2020/12/30 06:14:19;;;;;;;;;;;10.80;76.60;;;;;;2087724;28;2039;-53
2020/12/30 06:15:39;;;;;;;;;;;10.80;76.50;;;;;;2074288;28;1453;-54
2020/12/30 06:17:01;;;;;;;;;;;10.80;76.50;;;;;;2095141;28;1572;-52
2020/12/30 06:18:20;;;;;;;;;;;10.80;76.50;;;;;;2076062;28;746;-53
2020/12/30 06:19:42;;;;;;;;;;;10.80;76.70;;;;;;2086268;28;1910;-52
2020/12/30 06:21:02;;;;;;;;;;;10.80;76.60;;;;;;2089984;28;965;-51
2020/12/30 06:22:21;;;;;;;;;;;10.80;76.80;;;;;;2098024;28;716;-54
2020/12/30 06:23:40;;;;;;;;;;;10.80;76.70;;;;;;2084943;28;759;-54
2020/12/30 06:24:59;;;;;;;;;;;10.80;77.30;;;;;;2072373;28;844;-53
2020/12/30 06:26:18;;;;;;;;;;;10.80;76.70;;;;;;2078192;28;763;-52
2020/12/30 06:27:38;;;;;;;;;;;10.70;76.30;;;;;;2078242;28;758;-51
2020/12/30 06:28:57;;;;;;;;;;;10.70;76.60;;;;;;2073055;28;733;-53
2020/12/30 06:30:16;;;;;;;;;;;10.80;77.40;;;;;;2078180;28;812;-52
2020/12/30 06:31:42;;;;;;;;;;;10.80;76.60;;;;;;2095046;28;725;-52
2020/12/30 06:33:02;;;;;;;;;;;10.70;76.50;;;;;;2092558;28;768;-52
2020/12/30 06:34:21;;;;;;;;;;;10.70;76.50;;;;;;2090356;28;1452;-52
2020/12/30 06:35:40;;;;;;;;;;;10.70;76.50;;;;;;2089989;28;979;-52
2020/12/30 06:37:03;;;;;;;;;;;10.70;76.30;;;;;;2090597;28;751;-52
2020/12/30 06:38:23;;;;;;;;;;;10.70;76.30;;;;;;2090649;28;1002;-53
2020/12/30 06:39:42;;;;;;;;;;;10.80;76.50;;;;;;2089834;28;1917;-53
2020/12/30 06:41:02;;;;;;;;;;;10.80;76.60;;;;;;2089905;28;1083;-54
2020/12/30 06:42:21;;;;;;;;;;;10.80;76.60;;;;;;2090390;28;783;-52
2020/12/30 06:43:45;;;;;;;;;;;10.80;76.40;;;;;;2091843;28;999;-53
2020/12/30 06:45:05;;;;;;;;;;;10.80;76.30;;;;;;2092027;28;1028;-52
2020/12/30 06:46:24;;;;;;;;;;;10.90;76.20;;;;;;2081259;28;727;-53
2020/12/30 06:48:09;;;;;;;;;;;10.90;75.80;;;;;;2086450;28;737;-53
2020/12/30 06:49:28;;;;;;;;;;;11.00;75.50;;;;;;2090195;28;734;-53
2020/12/30 06:50:48;;;;;;;;;;;11.10;75.20;;;;;;2090597;28;710;-53
2020/12/30 06:52:23;;;;;;;;;;;11.10;74.60;;;;;;2081620;28;751;-53
2020/12/30 06:53:49;;;;;;;;;;;11.20;74.20;;;;;;2097090;28;822;-54
2020/12/30 06:55:08;;;;;;;;;;;11.20;73.50;;;;;;2075045;28;713;-54
2020/12/30 06:56:37;;;;;;;;;;;11.30;73.10;;;;;;2083777;28;722;-55
2020/12/30 06:57:56;;;;;;;;;;;11.30;72.60;;;;;;2090626;28;733;-52
2020/12/30 06:59:28;;;;;;;;;;;11.30;72.20;;;;;;2090454;28;752;-54
2020/12/30 07:00:55;;;;;;;;;;;11.40;72.00;;;;;;2090454;28;724;-54
2020/12/30 07:02:16;;;;;;;;;;;11.40;71.70;;;;;;2081369;28;823;-54
2020/12/30 07:03:36;;;;;;;;;;;11.40;71.50;;;;;;2087451;28;715;-53
2020/12/30 07:05:01;;;;;;;;;;;11.40;71.40;;;;;;2072552;28;1382;-53
2020/12/30 07:06:30;;;;;;;;;;;11.40;71.60;;;;;;2093099;28;942;-53
2020/12/30 07:07:48;;;;;;;;;;;11.40;72.10;;;;;;2076090;28;769;-53
2020/12/30 07:09:08;;;;;;;;;;;11.40;71.40;;;;;;2084165;28;745;-54
2020/12/30 07:10:27;;;;;;;;;;;11.40;71.40;;;;;;2090161;28;926;-53
2020/12/30 07:11:46;;;;;;;;;;;11.40;71.20;;;;;;2082348;28;769;-52
2020/12/30 07:13:05;;;;;;;;;;;11.50;71.20;;;;;;2079842;28;1677;-60
2020/12/30 07:14:25;;;;;;;;;;;11.50;70.90;;;;;;2086980;28;1394;-55
2020/12/30 07:15:44;;;;;;;;;;;11.60;70.80;;;;;;2092710;28;1209;-54
2020/12/30 07:17:04;;;;;;;;;;;11.60;71.20;;;;;;2089720;28;831;-53
2020/12/30 07:18:24;;;;;;;;;;;11.70;70.10;;;;;;2090436;28;772;-53
2020/12/30 07:19:43;;;;;;;;;;;11.70;69.70;;;;;;2103472;28;1897;-59
2020/12/30 07:21:11;;;;;;;;;;;11.80;69.40;;;;;;2096646;28;725;-53
2020/12/30 07:22:29;;;;;;;;;;;11.80;69.00;;;;;;2090599;28;756;-52
2020/12/30 07:23:49;;;;;;;;;;;11.90;69.20;;;;;;2089943;28;753;-52
2020/12/30 07:25:08;;;;;;;;;;;12.00;68.30;;;;;;2083543;28;815;-52
2020/12/30 07:26:27;;;;;;;;;;;12.00;67.70;;;;;;2086488;28;753;-52
2020/12/30 07:27:46;;;;;;;;;;;12.10;67.30;;;;;;2102999;28;718;-52
2020/12/30 07:29:05;;;;;;;;;;;12.10;66.90;;;;;;2092607;28;764;-53
2020/12/30 07:30:25;;;;;;;;;;;12.20;66.60;;;;;;2084443;28;764;-53
2020/12/30 07:31:45;;;;;;;;;;;12.30;66.30;;;;;;2090004;28;746;-55
2020/12/30 07:33:05;;;;;;;;;;;12.30;65.90;;;;;;2081003;28;767;-51
2020/12/30 07:34:25;;;;;;;;;;;12.40;65.70;;;;;;2085789;28;1408;-51
2020/12/30 07:35:45;;;;;;;;;;;12.40;65.10;;;;;;2089849;28;724;-53
2020/12/30 07:37:04;;;;;;;;;;;12.50;65.00;;;;;;2090093;28;736;-53
2020/12/30 07:38:23;;;;;;;;;;;12.60;65.30;;;;;;2089194;28;800;-54
2020/12/30 07:39:43;;;;;;;;;;;12.60;64.90;;;;;;2089808;28;821;-53
2020/12/30 07:41:06;;;;;;;;;;;12.70;63.90;;;;;;2080830;28;1257;-55
2020/12/30 07:42:28;;;;;;;;;;;12.80;63.70;;;;;;2089328;28;1395;-54
2020/12/30 07:43:48;;;;;;;;;;;12.80;63.10;;;;;;2096104;28;1293;-53
2020/12/30 07:45:08;;;;;;;;;;;12.90;63.00;;;;;;2085624;28;1396;-53
2020/12/30 07:46:28;;;;;;;;;;;13.00;62.80;;;;;;2094434;28;1376;-53
2020/12/30 07:47:47;;;;;;;;;;;13.00;62.50;;;;;;2093648;28;1085;-54
2020/12/30 07:49:07;;;;;;;;;;;13.10;62.20;;;;;;2085856;28;1261;-54
2020/12/30 07:50:26;;;;;;;;;;;13.20;62.00;;;;;;2080525;28;1267;-54
2020/12/30 07:51:46;;;;;;;;;;;13.20;61.80;;;;;;2094332;28;1303;-51
2020/12/30 07:53:05;;;;;;;;;;;13.30;61.40;;;;;;2100664;28;1275;-53
2020/12/30 07:54:25;;;;;;;;;;;13.30;61.10;;;;;;2088865;28;1546;-54
2020/12/30 07:55:44;;;;;;;;;;;13.40;60.90;;;;;;2096441;28;1356;-52
2020/12/30 07:57:10;;;;;;;;;;;13.50;60.60;;;;;;2088084;28;1436;-52